createdAt,value
2017-08-15T00:01:24.061Z,0.00
2017-08-15T00:02:24.101Z,0.00
2017-08-15T00:04:18.581Z,0.00
2017-08-15T00:05:18.605Z,0.00
2017-08-15T00:07:13.061Z,0.00
2017-08-15T00:08:13.100Z,0.00
2017-08-15T00:10:07.582Z,0.00
2017-08-15T00:11:07.598Z,0.00
2017-08-15T00:13:02.062Z,0.00
2017-08-15T00:14:02.109Z,0.00
2017-08-15T00:15:56.581Z,0.00
2017-08-15T00:16:56.606Z,0.00
2017-08-15T00:18:51.079Z,0.00
2017-08-15T00:19:51.093Z,0.00
2017-08-15T00:21:45.566Z,0.00
2017-08-15T00:22:45.622Z,0.00
2017-08-15T00:24:40.078Z,0.00
2017-08-15T00:25:40.094Z,0.00
2017-08-15T00:27:34.558Z,0.00
2017-08-15T00:28:34.598Z,0.00
2017-08-15T00:30:29.102Z,0.00
2017-08-15T00:31:29.113Z,0.00
2017-08-15T00:33:23.582Z,0.00
2017-08-15T00:34:23.622Z,0.00
2017-08-15T00:36:18.231Z,0.00
2017-08-15T00:37:18.214Z,0.00
2017-08-15T00:39:12.671Z,0.00
2017-08-15T00:40:12.694Z,0.00
2017-08-15T00:42:07.191Z,0.00
2017-08-15T00:43:07.191Z,0.00
2017-08-15T00:45:01.668Z,0.00
2017-08-15T00:46:01.695Z,0.00
2017-08-15T00:47:56.175Z,0.00
2017-08-15T00:48:56.199Z,0.00
2017-08-15T00:50:49.719Z,0.00
2017-08-15T00:51:49.759Z,0.00
2017-08-15T00:53:44.247Z,0.00
2017-08-15T00:54:44.271Z,0.00
2017-08-15T00:56:38.735Z,0.00
2017-08-15T00:57:38.767Z,0.00
2017-08-15T00:59:33.223Z,0.00
2017-08-15T01:00:33.263Z,0.00
2017-08-15T01:02:27.760Z,0.00
2017-08-15T01:03:27.768Z,0.00
2017-08-15T01:05:22.223Z,0.00
2017-08-15T01:06:22.256Z,0.00
2017-08-15T01:08:16.742Z,0.00
2017-08-15T01:09:16.759Z,0.00
2017-08-15T01:11:11.248Z,0.00
2017-08-15T01:12:11.255Z,0.00
2017-08-15T01:14:05.715Z,0.00
2017-08-15T01:15:05.763Z,0.00
2017-08-15T01:17:01.864Z,0.00
2017-08-15T01:18:01.869Z,0.00
2017-08-15T01:19:54.824Z,0.00
2017-08-15T01:20:54.888Z,0.00
2017-08-15T01:22:49.344Z,0.00
2017-08-15T01:23:49.360Z,0.00
2017-08-15T01:25:44.449Z,0.00
2017-08-15T01:26:44.416Z,0.00
2017-08-15T01:28:37.912Z,0.00
2017-08-15T01:29:37.929Z,0.00
2017-08-15T01:31:32.369Z,0.00
2017-08-15T01:32:32.685Z,0.00
2017-08-15T01:34:26.896Z,0.00
2017-08-15T01:35:26.929Z,0.00
2017-08-15T01:37:21.433Z,0.00
2017-08-15T01:38:20.553Z,0.00
2017-08-15T01:40:14.025Z,0.00
2017-08-15T01:41:14.033Z,0.00
2017-08-15T01:43:08.497Z,0.00
2017-08-15T01:44:08.537Z,0.00
2017-08-15T01:46:03.009Z,0.00
2017-08-15T01:47:03.033Z,0.00
2017-08-15T01:48:56.593Z,0.00
2017-08-15T01:49:56.641Z,0.00
2017-08-15T01:51:50.106Z,0.00
2017-08-15T01:52:50.105Z,0.00
2017-08-15T01:54:44.585Z,0.00
2017-08-15T01:55:44.593Z,0.00
2017-08-15T01:57:39.209Z,0.00
2017-08-15T01:58:39.210Z,0.00
2017-08-15T02:00:33.684Z,0.00
2017-08-15T02:01:33.673Z,0.00
2017-08-15T02:03:27.138Z,0.00
2017-08-15T02:04:27.187Z,0.00
2017-08-15T02:06:21.674Z,0.00
2017-08-15T02:07:21.674Z,0.00
2017-08-15T02:09:16.130Z,0.00
2017-08-15T02:10:16.170Z,0.00
2017-08-15T02:12:11.267Z,0.00
2017-08-15T02:13:12.182Z,0.00
2017-08-15T02:15:05.731Z,0.00
2017-08-15T02:16:05.771Z,0.00
2017-08-15T02:18:00.259Z,0.00
2017-08-15T02:19:00.275Z,0.00
2017-08-15T02:20:54.715Z,0.00
2017-08-15T02:21:54.770Z,0.00
2017-08-15T02:23:49.266Z,0.00
2017-08-15T02:24:49.258Z,0.00
2017-08-15T02:26:42.731Z,0.00
2017-08-15T02:27:42.755Z,0.00
2017-08-15T02:29:37.259Z,0.00
2017-08-15T02:30:37.284Z,0.00
2017-08-15T02:32:31.715Z,0.00
2017-08-15T02:33:31.747Z,0.00
2017-08-15T02:35:26.230Z,0.00
2017-08-15T02:36:26.251Z,0.00
2017-08-15T02:38:20.771Z,0.00
2017-08-15T02:39:20.835Z,0.00
2017-08-15T02:41:14.300Z,0.00
2017-08-15T02:42:14.315Z,0.00
2017-08-15T02:44:08.772Z,0.00
2017-08-15T02:45:08.812Z,0.00
2017-08-15T02:47:04.868Z,0.00
2017-08-15T02:48:04.892Z,0.00
2017-08-15T02:49:59.349Z,0.00
2017-08-15T02:50:59.372Z,0.00
2017-08-15T02:52:53.868Z,0.00
2017-08-15T02:53:53.869Z,0.00
2017-08-15T02:55:48.316Z,0.00
2017-08-15T02:56:48.358Z,0.00
2017-08-15T02:58:42.844Z,0.00
2017-08-15T02:59:42.876Z,0.00
2017-08-15T03:01:36.340Z,0.00
2017-08-15T03:02:36.365Z,0.00
2017-08-15T03:04:30.860Z,0.00
2017-08-15T03:05:30.852Z,0.00
2017-08-15T03:07:25.909Z,0.00
2017-08-15T03:08:25.949Z,0.00
2017-08-15T03:10:20.452Z,0.00
2017-08-15T03:11:20.460Z,0.00
2017-08-15T03:13:14.957Z,0.00
2017-08-15T03:14:14.981Z,0.00
2017-08-15T03:16:09.444Z,0.00
2017-08-15T03:17:09.469Z,0.00
2017-08-15T03:19:03.981Z,0.00
2017-08-15T03:20:03.965Z,0.00
2017-08-15T03:21:58.452Z,0.00
2017-08-15T03:22:58.469Z,0.00
2017-08-15T03:24:52.917Z,0.00
2017-08-15T03:25:52.957Z,0.00
2017-08-15T03:27:47.438Z,0.00
2017-08-15T03:28:47.469Z,0.00
2017-08-15T03:30:41.910Z,0.00
2017-08-15T03:31:41.941Z,0.00
2017-08-15T03:33:36.446Z,0.00
2017-08-15T03:34:36.462Z,0.00
2017-08-15T03:36:31.167Z,0.00
2017-08-15T03:37:30.958Z,0.00
2017-08-15T03:39:25.430Z,0.00
2017-08-15T03:40:25.446Z,0.00
2017-08-15T03:42:19.902Z,0.00
2017-08-15T03:43:19.934Z,0.00
2017-08-15T03:45:14.438Z,4.00
2017-08-15T03:46:14.438Z,4.00
2017-08-15T03:48:08.902Z,0.00
2017-08-15T03:49:08.942Z,4.00
2017-08-15T03:51:03.430Z,4.00
2017-08-15T03:52:03.446Z,4.00
2017-08-15T03:53:56.942Z,4.00
2017-08-15T03:54:56.966Z,8.00
2017-08-15T03:56:50.478Z,12.00
2017-08-15T03:57:50.462Z,16.00
2017-08-15T03:59:44.919Z,20.00
2017-08-15T04:00:44.943Z,20.00
2017-08-15T04:02:39.430Z,24.00
2017-08-15T04:03:39.447Z,32.00
2017-08-15T04:05:32.903Z,36.00
2017-08-15T04:06:32.943Z,44.00
2017-08-15T04:08:26.503Z,56.00
2017-08-15T04:09:26.527Z,60.00
2017-08-15T04:11:20.959Z,72.00
2017-08-15T04:12:21.015Z,80.00
2017-08-15T04:14:14.575Z,100.00
2017-08-15T04:15:14.591Z,108.00
2017-08-15T04:17:09.023Z,128.00
2017-08-15T04:18:09.063Z,136.00
2017-08-15T04:20:03.567Z,156.00
2017-08-15T04:21:03.568Z,164.00
2017-08-15T04:22:58.024Z,188.00
2017-08-15T04:23:58.063Z,200.00
2017-08-15T04:25:53.008Z,228.00
2017-08-15T04:26:52.592Z,240.00
2017-08-15T04:28:47.024Z,276.00
2017-08-15T04:29:47.055Z,292.00
2017-08-15T04:31:41.528Z,332.00
2017-08-15T04:32:41.543Z,348.00
2017-08-15T04:34:35.104Z,384.00
2017-08-15T04:35:35.153Z,404.00
2017-08-15T04:37:28.584Z,440.00
2017-08-15T04:38:28.641Z,456.00
2017-08-15T04:40:23.287Z,492.00
2017-08-15T04:41:23.160Z,512.00
2017-08-15T04:43:17.600Z,544.00
2017-08-15T04:44:17.633Z,568.00
2017-08-15T04:46:11.208Z,604.00
2017-08-15T04:47:11.216Z,624.00
2017-08-15T04:49:05.745Z,660.00
2017-08-15T04:50:05.788Z,684.00
2017-08-15T04:51:59.400Z,728.00
2017-08-15T04:52:59.424Z,748.00
2017-08-15T04:54:52.376Z,792.00
2017-08-15T04:55:52.457Z,816.00
2017-08-15T04:57:46.920Z,864.00
2017-08-15T04:58:46.936Z,888.00
2017-08-15T05:00:41.448Z,948.00
2017-08-15T05:01:41.416Z,972.00
2017-08-15T05:03:35.896Z,1032.00
2017-08-15T05:04:35.945Z,1056.00
2017-08-15T05:06:30.376Z,1080.00
2017-08-15T05:07:30.408Z,1080.00
2017-08-15T05:09:25.312Z,1100.00
2017-08-15T05:10:25.281Z,1108.00
2017-08-15T05:12:20.753Z,1132.00
2017-08-15T05:13:20.776Z,1152.00
2017-08-15T05:15:15.233Z,1184.00
2017-08-15T05:16:15.274Z,1204.00
2017-08-15T05:18:09.755Z,1244.00
2017-08-15T05:19:09.772Z,1268.00
2017-08-15T05:21:04.307Z,1308.00
2017-08-15T05:22:04.276Z,1332.00
2017-08-15T05:23:58.756Z,1376.00
2017-08-15T05:24:58.829Z,1404.00
2017-08-15T05:26:53.236Z,1452.00
2017-08-15T05:27:53.276Z,1480.00
2017-08-15T05:29:47.751Z,1536.00
2017-08-15T05:30:47.764Z,1560.00
2017-08-15T05:32:42.244Z,1640.00
2017-08-15T05:33:42.260Z,1700.00
2017-08-15T05:35:36.741Z,1852.00
2017-08-15T05:36:36.765Z,1964.00
2017-08-15T05:38:31.213Z,2208.00
2017-08-15T05:39:31.253Z,2324.00
2017-08-15T05:41:25.829Z,2464.00
2017-08-15T05:42:25.757Z,2528.00
2017-08-15T05:44:20.773Z,2648.00
2017-08-15T05:45:20.997Z,2724.00
2017-08-15T05:47:14.526Z,2836.00
2017-08-15T05:48:14.352Z,2856.00
2017-08-15T05:50:08.769Z,2872.00
2017-08-15T05:51:09.066Z,2868.00
2017-08-15T05:53:03.304Z,2732.00
2017-08-15T05:54:03.312Z,2648.00
2017-08-15T05:55:57.753Z,2500.00
2017-08-15T05:56:57.793Z,2476.00
2017-08-15T05:58:51.280Z,2728.00
2017-08-15T05:59:51.296Z,2816.00
2017-08-15T06:01:45.761Z,2904.00
2017-08-15T06:02:45.792Z,2968.00
2017-08-15T06:04:40.264Z,3096.00
2017-08-15T06:05:40.291Z,3224.00
2017-08-15T06:07:34.777Z,3504.00
2017-08-15T06:08:34.808Z,3632.00
2017-08-15T06:10:29.289Z,3716.00
2017-08-15T06:11:29.297Z,3772.00
2017-08-15T06:13:23.761Z,3784.00
2017-08-15T06:14:23.785Z,3740.00
2017-08-15T06:16:18.282Z,3684.00
2017-08-15T06:17:18.297Z,3664.00
2017-08-15T06:19:11.769Z,3604.00
2017-08-15T06:20:12.009Z,3544.00
2017-08-15T06:22:06.257Z,3420.00
2017-08-15T06:23:06.282Z,3316.00
2017-08-15T06:25:00.762Z,3236.00
2017-08-15T06:26:00.778Z,3096.00
2017-08-15T06:27:55.273Z,3240.00
2017-08-15T06:28:55.298Z,3232.00
2017-08-15T06:30:49.753Z,3084.00
2017-08-15T06:31:49.794Z,2936.00
2017-08-15T06:33:44.287Z,2692.00
2017-08-15T06:34:44.292Z,2636.00
2017-08-15T06:36:38.770Z,2636.00
2017-08-15T06:37:38.794Z,2712.00
2017-08-15T06:39:32.275Z,2980.00
2017-08-15T06:40:32.289Z,3064.00
2017-08-15T06:42:26.754Z,3296.00
2017-08-15T06:43:26.803Z,3480.00
2017-08-15T06:45:21.291Z,3648.00
2017-08-15T06:46:21.291Z,3844.00
2017-08-15T06:48:15.771Z,5024.00
2017-08-15T06:49:15.819Z,5320.00
2017-08-15T06:51:10.287Z,5452.00
2017-08-15T06:52:10.307Z,5100.00
2017-08-15T06:54:04.803Z,5708.00
2017-08-15T06:55:04.803Z,5564.00
2017-08-15T06:56:58.283Z,5248.00
2017-08-15T06:57:58.307Z,5188.00
2017-08-15T06:59:52.802Z,5320.00
2017-08-15T07:00:52.811Z,5560.00
2017-08-15T07:02:47.283Z,6064.00
2017-08-15T07:03:47.315Z,6328.00
2017-08-15T07:05:41.835Z,7100.00
2017-08-15T07:06:41.819Z,7436.00
2017-08-15T07:08:36.275Z,7956.00
2017-08-15T07:09:36.316Z,8152.00
2017-08-15T07:11:30.795Z,8328.00
2017-08-15T07:12:30.819Z,8360.00
2017-08-15T07:14:25.275Z,8276.00
2017-08-15T07:15:25.324Z,8164.00
2017-08-15T07:17:31.308Z,8088.00
2017-08-15T07:18:31.341Z,8056.00
2017-08-15T07:20:25.796Z,8060.00
2017-08-15T07:21:25.828Z,8044.00
2017-08-15T07:23:19.340Z,8052.00
2017-08-15T07:24:19.348Z,8048.00
2017-08-15T07:26:12.844Z,8080.00
2017-08-15T07:27:12.844Z,8096.00
2017-08-15T07:29:07.332Z,8084.00
2017-08-15T07:30:07.372Z,8068.00
2017-08-15T07:32:01.852Z,7936.00
2017-08-15T07:33:01.876Z,7888.00
2017-08-15T07:34:56.348Z,7716.00
2017-08-15T07:35:56.420Z,7600.00
2017-08-15T07:37:50.881Z,7448.00
2017-08-15T07:38:50.877Z,7440.00
2017-08-15T07:40:45.325Z,7452.00
2017-08-15T07:41:45.389Z,7492.00
2017-08-15T07:43:39.877Z,7588.00
2017-08-15T07:44:39.933Z,7672.00
2017-08-15T07:46:33.341Z,7876.00
2017-08-15T07:47:33.389Z,8008.00
2017-08-15T07:49:27.885Z,8236.00
2017-08-15T07:50:27.885Z,8380.00
2017-08-15T07:52:22.365Z,8868.00
2017-08-15T07:53:22.478Z,9132.00
2017-08-15T07:55:15.877Z,9544.00
2017-08-15T07:56:15.909Z,9744.00
2017-08-15T07:58:10.380Z,10160.00
2017-08-15T07:59:10.405Z,10300.00
2017-08-15T08:01:04.869Z,10600.00
2017-08-15T08:02:04.909Z,10752.00
2017-08-15T08:03:59.429Z,11104.00
2017-08-15T08:04:59.421Z,11400.00
2017-08-15T08:06:53.925Z,11696.00
2017-08-15T08:07:53.929Z,11776.00
2017-08-15T08:09:48.381Z,11836.00
2017-08-15T08:10:48.429Z,11712.00
2017-08-15T08:12:42.909Z,11752.00
2017-08-15T08:13:42.941Z,11804.00
2017-08-15T08:15:37.405Z,11868.00
2017-08-15T08:16:37.453Z,11952.00
2017-08-15T08:18:30.950Z,12116.00
2017-08-15T08:19:30.965Z,12152.00
2017-08-15T08:21:24.437Z,11924.00
2017-08-15T08:22:24.550Z,11580.00
2017-08-15T08:24:18.982Z,9876.00
2017-08-15T08:25:18.990Z,8776.00
2017-08-15T08:27:14.992Z,7632.00
2017-08-15T08:28:15.038Z,7444.00
2017-08-15T08:30:09.486Z,7284.00
2017-08-15T08:31:09.526Z,7168.00
2017-08-15T08:33:03.982Z,6980.00
2017-08-15T08:34:04.022Z,7116.00
2017-08-15T08:35:58.518Z,7684.00
2017-08-15T08:36:58.526Z,7900.00
2017-08-15T08:38:52.982Z,8016.00
2017-08-15T08:39:53.032Z,8096.00
2017-08-15T08:41:47.558Z,8524.00
2017-08-15T08:42:47.535Z,9068.00
2017-08-15T08:44:41.014Z,9960.00
2017-08-15T08:45:41.055Z,10276.00
2017-08-15T08:47:35.535Z,10452.00
2017-08-15T08:48:35.551Z,10632.00
2017-08-15T08:50:30.071Z,11096.00
2017-08-15T08:51:30.062Z,11272.00
2017-08-15T08:53:24.511Z,11416.00
2017-08-15T08:54:24.575Z,11588.00
2017-08-15T08:56:19.063Z,11912.00
2017-08-15T08:57:19.078Z,12140.00
2017-08-15T08:59:12.547Z,12728.00
2017-08-15T09:00:12.591Z,12992.00
2017-08-15T09:02:07.095Z,13476.00
2017-08-15T09:03:07.113Z,13704.00
2017-08-15T09:05:01.575Z,14288.00
2017-08-15T09:06:01.616Z,14500.00
2017-08-15T09:08:06.600Z,14156.00
2017-08-15T09:09:06.623Z,13736.00
2017-08-15T09:11:01.136Z,13280.00
2017-08-15T09:12:01.144Z,12944.00
2017-08-15T09:14:09.679Z,12000.00
2017-08-15T09:15:09.727Z,10708.00
2017-08-15T09:17:04.194Z,9932.00
2017-08-15T09:18:04.216Z,9624.00
2017-08-15T09:19:58.690Z,9732.00
2017-08-15T09:20:58.776Z,9748.00
2017-08-15T09:22:52.208Z,10288.00
2017-08-15T09:23:52.241Z,10520.00
2017-08-15T09:25:46.713Z,10508.00
2017-08-15T09:26:46.753Z,10544.00
2017-08-15T09:28:41.230Z,10580.00
2017-08-15T09:29:41.296Z,10300.00
2017-08-15T09:31:35.720Z,9856.00
2017-08-15T09:32:35.762Z,9716.00
2017-08-15T09:34:30.249Z,9772.00
2017-08-15T09:35:30.272Z,10012.00
2017-08-15T09:37:36.293Z,10284.00
2017-08-15T09:38:36.313Z,10308.00
2017-08-15T09:40:29.788Z,10056.00
2017-08-15T09:41:29.809Z,9924.00
2017-08-15T09:43:24.313Z,9784.00
2017-08-15T09:44:24.321Z,9564.00
2017-08-15T09:46:18.785Z,9116.00
2017-08-15T09:47:18.833Z,8820.00
2017-08-15T09:49:13.308Z,8100.00
2017-08-15T09:50:13.345Z,7768.00
2017-08-15T09:52:06.842Z,7500.00
2017-08-15T09:53:06.865Z,7596.00
2017-08-15T09:55:01.305Z,7992.00
2017-08-15T09:56:01.362Z,8200.00
2017-08-15T09:57:55.833Z,8444.00
2017-08-15T09:58:55.866Z,8400.00
2017-08-15T10:00:50.329Z,7932.00
2017-08-15T10:01:50.378Z,7532.00
2017-08-15T10:03:44.906Z,6692.00
2017-08-15T10:04:44.906Z,6268.00
2017-08-15T10:06:39.410Z,5644.00
2017-08-15T10:07:39.426Z,5404.00
2017-08-15T10:09:33.882Z,5096.00
2017-08-15T10:10:33.946Z,5016.00
2017-08-15T10:12:28.378Z,5140.00
2017-08-15T10:13:28.418Z,5540.00
2017-08-15T10:15:22.922Z,6544.00
2017-08-15T10:16:22.938Z,7128.00
2017-08-15T10:18:16.426Z,8032.00
2017-08-15T10:19:16.442Z,7884.00
2017-08-15T10:21:10.906Z,7548.00
2017-08-15T10:22:10.946Z,7876.00
2017-08-15T10:24:05.450Z,9152.00
2017-08-15T10:25:05.459Z,9356.00
2017-08-15T10:26:59.924Z,9156.00
2017-08-15T10:28:00.963Z,8488.00
2017-08-15T10:30:06.466Z,7456.00
2017-08-15T10:31:06.443Z,6976.00
2017-08-15T10:33:01.947Z,6228.00
2017-08-15T10:34:01.971Z,6280.00
2017-08-15T10:35:56.460Z,7152.00
2017-08-15T10:36:56.444Z,7440.00
2017-08-15T10:38:52.500Z,7780.00
2017-08-15T10:39:52.483Z,8048.00
2017-08-15T10:41:46.955Z,8052.00
2017-08-15T10:42:46.995Z,8032.00
2017-08-15T10:44:41.475Z,8900.00
2017-08-15T10:45:41.507Z,9812.00
2017-08-15T10:47:37.586Z,12064.00
2017-08-15T10:48:37.596Z,12256.00
2017-08-15T10:50:32.517Z,14832.00
2017-08-15T10:51:32.564Z,15220.00
2017-08-15T10:53:27.076Z,16928.00
2017-08-15T10:54:27.077Z,18368.00
2017-08-15T10:56:23.084Z,20768.00
2017-08-15T10:57:23.220Z,20896.00
2017-08-15T10:59:17.700Z,20032.00
2017-08-15T11:00:17.701Z,19968.00
2017-08-15T11:02:13.709Z,21504.00
2017-08-15T11:03:24.983Z,21888.00
2017-08-15T11:06:58.157Z,18080.00
2017-08-15T11:07:58.085Z,21024.00
2017-08-15T11:09:45.725Z,27904.00
2017-08-15T11:10:45.772Z,28384.00
2017-08-15T11:12:40.252Z,27328.00
2017-08-15T11:13:40.502Z,22816.00
2017-08-15T11:15:34.744Z,22240.00
2017-08-15T11:16:35.174Z,24640.00
2017-08-15T11:18:29.261Z,29216.00
2017-08-15T11:19:29.605Z,35456.00
2017-08-15T11:21:32.525Z,36672.00
2017-08-15T11:22:33.755Z,30976.00
2017-08-15T11:26:01.077Z,16928.00
2017-08-15T11:26:59.614Z,14724.00
2017-08-15T11:28:55.533Z,15112.00
2017-08-15T11:29:55.629Z,23648.00
2017-08-15T11:31:52.710Z,21312.00
2017-08-15T11:34:07.677Z,28256.00
2017-08-15T11:35:07.678Z,27456.00
2017-08-15T11:37:02.542Z,52416.00
2017-08-15T11:38:02.214Z,64256.00
2017-08-15T11:40:07.278Z,83968.00
2017-08-15T11:41:07.317Z,86656.00
2017-08-15T11:43:02.142Z,88160.00
2017-08-15T11:44:01.831Z,85984.00
2017-08-15T11:45:57.078Z,74048.00
2017-08-15T11:48:11.374Z,54464.00
2017-08-15T11:49:11.383Z,74784.00
2017-08-15T11:51:07.687Z,84704.00
2017-08-15T11:52:07.742Z,87904.00
2017-08-15T11:54:01.967Z,99104.00
2017-08-15T11:55:01.999Z,95072.00
2017-08-15T11:56:56.511Z,93920.00
2017-08-15T11:57:56.535Z,90496.00
2017-08-15T11:59:51.015Z,95936.00
2017-08-15T12:00:51.119Z,95520.00
2017-08-15T12:02:47.071Z,95008.00
2017-08-15T12:03:47.183Z,99584.00
2017-08-15T12:05:41.657Z,94336.00
2017-08-15T12:06:41.640Z,94336.00
2017-08-15T12:08:36.167Z,94368.00
2017-08-15T12:09:36.184Z,97376.00
2017-08-15T12:11:30.680Z,100224.00
2017-08-15T12:12:30.695Z,101280.00
2017-08-15T12:14:25.272Z,99520.00
2017-08-15T12:15:25.239Z,102080.00
2017-08-15T12:17:19.736Z,101376.00
2017-08-15T12:18:19.920Z,101056.00
2017-08-15T12:20:14.368Z,100864.00
2017-08-15T12:21:14.304Z,101824.00
2017-08-15T12:23:08.808Z,96928.00
2017-08-15T12:24:08.848Z,100736.00
2017-08-15T12:26:03.352Z,100256.00
2017-08-15T12:27:03.384Z,98848.00
2017-08-15T12:28:57.872Z,101696.00
2017-08-15T12:29:58.224Z,97120.00
2017-08-15T12:31:51.560Z,102208.00
2017-08-15T12:32:51.592Z,103392.00
2017-08-15T12:34:46.105Z,103904.00
2017-08-15T12:35:46.137Z,78848.00
2017-08-15T12:37:40.625Z,87232.00
2017-08-15T12:38:40.678Z,52096.00
2017-08-15T12:40:36.737Z,110400.00
2017-08-15T12:41:36.713Z,103936.00
2017-08-15T12:43:31.193Z,97568.00
2017-08-15T12:44:31.255Z,112256.00
2017-08-15T12:46:25.831Z,23008.00
2017-08-15T12:47:25.847Z,25664.00
2017-08-15T12:49:20.312Z,68960.00
2017-08-15T12:50:20.320Z,77344.00
2017-08-15T12:52:16.353Z,33408.00
2017-08-15T12:53:16.376Z,98368.00
2017-08-15T12:55:10.887Z,21760.00
2017-08-15T12:56:10.912Z,27232.00
2017-08-15T12:58:05.392Z,57088.00
2017-08-15T12:59:05.456Z,95808.00
2017-08-15T13:01:00.088Z,71520.00
2017-08-15T13:02:00.024Z,97504.00
2017-08-15T13:03:53.632Z,30848.00
2017-08-15T13:04:53.536Z,27328.00
2017-08-15T13:06:48.072Z,19104.00
2017-08-15T13:07:48.096Z,24032.00
2017-08-15T13:09:42.625Z,14108.00
2017-08-15T13:10:42.680Z,10064.00
2017-08-15T13:12:36.224Z,9520.00
2017-08-15T13:13:36.169Z,8776.00
2017-08-15T13:15:33.424Z,9108.00
2017-08-15T13:17:45.745Z,10288.00
2017-08-15T13:18:45.792Z,12044.00
2017-08-15T13:20:40.289Z,10712.00
2017-08-15T13:21:40.321Z,9344.00
2017-08-15T13:23:34.865Z,10772.00
2017-08-15T13:24:34.841Z,13736.00
2017-08-15T13:26:29.369Z,17312.00
2017-08-15T13:27:29.401Z,13232.00
2017-08-15T13:29:23.857Z,17568.00
2017-08-15T13:30:23.913Z,17536.00
2017-08-15T13:32:18.425Z,18528.00
2017-08-15T13:33:18.433Z,14372.00
2017-08-15T13:35:12.913Z,27168.00
2017-08-15T13:36:12.975Z,39936.00
2017-08-15T13:38:07.466Z,80352.00
2017-08-15T13:39:07.486Z,84992.00
2017-08-15T13:41:01.954Z,104288.00
2017-08-15T13:42:02.010Z,105120.00
2017-08-15T13:43:56.498Z,84064.00
2017-08-15T13:44:56.522Z,29120.00
2017-08-15T13:46:51.010Z,18176.00
2017-08-15T13:47:51.065Z,26848.00
2017-08-15T13:49:45.522Z,28832.00
2017-08-15T13:50:45.570Z,51104.00
2017-08-15T13:52:39.084Z,30528.00
2017-08-15T13:53:39.114Z,20576.00
2017-08-15T13:55:33.594Z,15804.00
2017-08-15T13:56:33.666Z,15716.00
2017-08-15T13:58:28.138Z,13608.00
2017-08-15T13:59:28.354Z,11016.00
2017-08-15T14:01:22.666Z,7196.00
2017-08-15T14:02:22.690Z,6952.00
2017-08-15T14:04:17.210Z,5816.00
2017-08-15T14:05:17.242Z,5968.00
2017-08-15T14:07:11.691Z,5432.00
2017-08-15T14:08:11.739Z,3632.00
2017-08-15T14:10:06.243Z,2488.00
2017-08-15T14:11:06.283Z,2584.00
2017-08-15T14:13:00.747Z,2908.00
2017-08-15T14:14:00.804Z,2968.00
2017-08-15T14:15:55.300Z,2996.00
2017-08-15T14:16:55.308Z,3400.00
2017-08-15T14:18:49.779Z,4836.00
2017-08-15T14:19:49.827Z,6616.00
2017-08-15T14:21:44.348Z,8856.00
2017-08-15T14:22:44.363Z,9040.00
2017-08-15T14:24:37.451Z,11172.00
2017-08-15T14:25:37.548Z,9440.00
2017-08-15T14:27:31.995Z,7772.00
2017-08-15T14:28:32.011Z,7544.00
2017-08-15T14:30:26.548Z,13864.00
2017-08-15T14:31:26.541Z,14776.00
2017-08-15T14:33:20.995Z,8360.00
2017-08-15T14:34:21.044Z,5964.00
2017-08-15T14:36:15.540Z,3564.00
2017-08-15T14:37:15.580Z,3108.00
2017-08-15T14:39:10.100Z,3060.00
2017-08-15T14:40:10.220Z,3620.00
2017-08-15T14:42:04.564Z,4264.00
2017-08-15T14:43:04.620Z,4068.00
2017-08-15T14:44:58.124Z,2912.00
2017-08-15T14:45:58.124Z,2976.00
2017-08-15T14:47:52.604Z,4052.00
2017-08-15T14:48:52.644Z,4784.00
2017-08-15T14:50:47.188Z,6104.00
2017-08-15T14:51:47.172Z,4388.00
2017-08-15T14:53:41.644Z,2764.00
2017-08-15T14:54:41.677Z,2164.00
2017-08-15T14:56:36.164Z,1648.00
2017-08-15T14:57:36.180Z,1848.00
2017-08-15T14:59:29.693Z,2732.00
2017-08-15T15:00:29.708Z,3468.00
2017-08-15T15:02:24.197Z,4312.00
2017-08-15T15:03:24.221Z,4056.00
2017-08-15T15:05:18.708Z,2852.00
2017-08-15T15:06:18.733Z,2352.00
2017-08-15T15:08:13.230Z,2048.00
2017-08-15T15:09:13.245Z,1800.00
2017-08-15T15:11:07.717Z,2992.00
2017-08-15T15:12:07.749Z,3284.00
2017-08-15T15:14:02.277Z,2180.00
2017-08-15T15:15:02.262Z,2060.00
2017-08-15T15:16:55.726Z,3180.00
2017-08-15T15:17:55.765Z,5112.00
2017-08-15T15:19:50.253Z,7440.00
2017-08-15T15:20:50.277Z,7180.00
2017-08-15T15:22:44.742Z,5968.00
2017-08-15T15:23:44.790Z,5516.00
2017-08-15T15:25:39.294Z,5356.00
2017-08-15T15:26:39.302Z,5352.00
2017-08-15T15:28:33.782Z,4652.00
2017-08-15T15:29:33.822Z,3992.00
2017-08-15T15:31:28.310Z,3244.00
2017-08-15T15:32:28.326Z,3616.00
2017-08-15T15:34:21.799Z,3140.00
2017-08-15T15:35:21.838Z,2080.00
2017-08-15T15:37:16.334Z,1584.00
2017-08-15T15:38:16.350Z,1508.00
2017-08-15T15:40:09.862Z,1348.00
2017-08-15T15:41:09.878Z,1288.00
2017-08-15T15:43:04.358Z,1056.00
2017-08-15T15:44:04.382Z,1132.00
2017-08-15T15:45:58.871Z,1552.00
2017-08-15T15:46:58.894Z,1640.00
2017-08-15T15:48:53.374Z,1668.00
2017-08-15T15:49:53.407Z,1660.00
2017-08-15T15:51:47.878Z,1544.00
2017-08-15T15:52:47.911Z,1484.00
2017-08-15T15:54:42.392Z,1544.00
2017-08-15T15:55:42.423Z,1408.00
2017-08-15T15:57:36.920Z,2944.00
2017-08-15T15:58:36.959Z,2384.00
2017-08-15T16:00:31.407Z,1928.00
2017-08-15T16:01:31.448Z,1828.00
2017-08-15T16:03:25.927Z,2348.00
2017-08-15T16:04:25.960Z,1756.00
2017-08-15T16:06:19.456Z,2400.00
2017-08-15T16:07:19.479Z,2472.00
2017-08-15T16:09:14.783Z,2096.00
2017-08-15T16:10:14.815Z,1868.00
2017-08-15T16:12:08.312Z,1512.00
2017-08-15T16:13:08.357Z,1492.00
2017-08-15T16:15:02.928Z,2788.00
2017-08-15T16:16:02.864Z,2612.00
2017-08-15T16:17:58.457Z,2444.00
2017-08-15T16:18:57.376Z,2644.00
2017-08-15T16:20:51.824Z,2920.00
2017-08-15T16:21:51.864Z,3060.00
2017-08-15T16:23:46.408Z,3304.00
2017-08-15T16:24:46.416Z,3380.00
2017-08-15T16:26:39.880Z,3436.00
2017-08-15T16:27:39.937Z,3464.00
2017-08-15T16:29:34.464Z,3616.00
2017-08-15T16:30:34.536Z,3652.00
2017-08-15T16:32:28.920Z,3596.00
2017-08-15T16:33:28.953Z,3560.00
2017-08-15T16:35:23.441Z,3596.00
2017-08-15T16:36:23.457Z,3640.00
2017-08-15T16:38:17.953Z,3572.00
2017-08-15T16:39:18.001Z,3796.00
2017-08-15T16:41:12.458Z,4196.00
2017-08-15T16:42:12.458Z,4596.00
2017-08-15T16:44:06.962Z,5376.00
2017-08-15T16:45:07.443Z,5796.00
2017-08-15T16:47:06.029Z,6612.00
2017-08-15T16:48:03.906Z,7208.00
2017-08-15T16:50:06.201Z,8208.00
2017-08-15T16:51:06.330Z,8376.00
2017-08-15T16:52:52.153Z,7364.00
2017-08-15T16:53:52.072Z,5848.00
2017-08-15T16:55:47.787Z,3384.00
2017-08-15T16:56:47.626Z,2880.00
2017-08-15T16:58:50.025Z,2204.00
2017-08-15T16:59:42.562Z,1944.00
2017-08-15T17:01:36.667Z,1808.00
2017-08-15T17:02:36.798Z,2060.00
2017-08-15T17:04:31.550Z,2348.00
2017-08-15T17:05:39.902Z,2308.00
2017-08-15T17:07:24.754Z,1540.00
2017-08-15T17:08:24.726Z,1188.00
2017-08-15T17:10:19.238Z,1388.00
2017-08-15T17:11:19.366Z,1308.00
2017-08-15T17:13:13.751Z,1596.00
2017-08-15T17:14:13.838Z,1284.00
2017-08-15T17:16:08.318Z,864.00
2017-08-15T17:17:08.335Z,736.00
2017-08-15T17:19:02.823Z,552.00
2017-08-15T17:20:02.863Z,800.00
2017-08-15T17:21:57.302Z,1328.00
2017-08-15T17:22:57.334Z,1220.00
2017-08-15T17:24:50.781Z,856.00
2017-08-15T17:29:06.396Z,1048.00
2017-08-15T17:30:07.812Z,1440.00
2017-08-15T17:32:00.605Z,1112.00
2017-08-15T17:33:00.029Z,1076.00
2017-08-15T17:34:53.589Z,812.00
2017-08-15T17:35:53.421Z,1112.00
2017-08-15T17:37:46.949Z,1652.00
2017-08-15T17:38:47.004Z,1696.00
2017-08-15T17:40:41.421Z,1404.00
2017-08-15T17:41:50.094Z,1128.00
2017-08-15T17:43:48.085Z,372.00
2017-08-15T17:44:48.006Z,256.00
2017-08-15T17:46:54.781Z,440.00
2017-08-15T17:47:54.097Z,344.00
2017-08-15T17:49:49.381Z,712.00
2017-08-15T17:50:49.405Z,840.00
2017-08-15T17:52:44.382Z,1232.00
2017-08-15T17:53:43.919Z,1100.00
2017-08-15T17:55:40.190Z,1004.00
2017-08-15T17:56:39.918Z,1040.00
2017-08-15T17:58:34.399Z,716.00
2017-08-15T17:59:34.438Z,476.00
2017-08-15T18:01:27.870Z,284.00